Time;durP1;ratioP1;P1;durP2;ratioP2;P2;SDS_P1;SDS_P2;PMS_P1;PMS_P2;Temp;Humidity;BMP_temperature;BMP_pressure;BME280_temperature;BME280_humidity;BME280_pressure;Samples;Min_cycle;Max_cycle;Signal;HPM_P1;HPM_P2
2023/06/30 00:01:25;;;;;;;15.95;4.68;;;15.60;99.90;;;;;;4943721;28;20053;-53
2023/06/30 00:03:52;;;;;;;9.90;4.13;;;15.60;99.90;;;;;;4942726;28;20047;-50
2023/06/30 00:06:17;;;;;;;10.57;4.32;;;15.50;99.90;;;;;;4943785;28;20380;-53
2023/06/30 00:08:43;;;;;;;12.48;4.13;;;15.50;99.90;;;;;;4944295;28;20047;-52
2023/06/30 00:11:09;;;;;;;15.57;5.00;;;15.50;99.90;;;;;;4942224;28;20554;-54
2023/06/30 00:13:35;;;;;;;13.63;4.57;;;15.50;99.90;;;;;;4943569;28;20425;-54
2023/06/30 00:16:01;;;;;;;12.48;4.53;;;15.40;99.90;;;;;;4943549;28;20047;-54
2023/06/30 00:18:27;;;;;;;12.02;4.80;;;15.30;99.90;;;;;;4943689;28;20047;-53
2023/06/30 00:20:54;;;;;;;10.70;5.03;;;15.30;99.90;;;;;;4942523;28;20070;-52
2023/06/30 00:23:20;;;;;;;13.20;5.32;;;15.20;99.90;;;;;;4943362;28;20047;-53
2023/06/30 00:25:46;;;;;;;10.52;4.80;;;15.10;99.90;;;;;;4942932;28;20045;-49
2023/06/30 00:28:12;;;;;;;13.73;4.82;;;15.10;99.90;;;;;;4942615;28;20039;-55
2023/06/30 00:30:38;;;;;;;9.98;5.25;;;15.10;99.90;;;;;;4943515;28;20054;-54
2023/06/30 00:33:04;;;;;;;18.55;5.45;;;15.00;99.90;;;;;;4943921;28;20051;-56
2023/06/30 00:35:29;;;;;;;12.23;5.40;;;15.00;99.90;;;;;;4943075;28;20043;-54
2023/06/30 00:37:55;;;;;;;10.20;5.15;;;15.10;99.90;;;;;;4925707;29;20047;-53
2023/06/30 00:40:21;;;;;;;13.70;5.13;;;14.80;99.90;;;;;;4943285;28;20054;-55
2023/06/30 00:42:46;;;;;;;16.52;6.07;;;14.80;99.90;;;;;;4942965;28;20110;-55
2023/06/30 00:45:12;;;;;;;12.00;5.63;;;14.70;99.90;;;;;;4942935;28;20051;-51
2023/06/30 00:47:38;;;;;;;13.43;5.75;;;14.60;99.90;;;;;;4943373;28;20467;-54
2023/06/30 00:50:04;;;;;;;12.10;5.38;;;14.70;99.90;;;;;;4943143;28;20127;-53
2023/06/30 00:52:30;;;;;;;13.90;5.85;;;14.60;99.90;;;;;;4942666;28;20046;-53
2023/06/30 00:54:56;;;;;;;10.98;5.35;;;14.40;99.90;;;;;;4942276;28;20043;-54
2023/06/30 00:57:21;;;;;;;14.63;5.45;;;14.50;99.90;;;;;;4942407;28;20186;-52
2023/06/30 00:59:47;;;;;;;17.70;5.85;;;14.70;99.90;;;;;;4942881;28;20415;-50
2023/06/30 01:02:19;;;;;;;18.58;6.57;;;14.40;99.90;;;;;;4942137;28;20050;-53
2023/06/30 01:04:57;;;;;;;11.57;5.25;;;14.40;99.90;;;;;;5031582;23;20054;-49
2023/06/30 01:07:33;;;;;;;15.80;5.68;;;14.30;99.90;;;;;;4977734;28;20516;-60
2023/06/30 01:10:26;;;;;;;13.45;5.50;;;14.30;99.90;;;;;;4962536;28;20043;-55
2023/06/30 01:12:53;;;;;;;14.25;5.40;;;14.20;99.90;;;;;;4971562;28;20508;-60
2023/06/30 01:15:20;;;;;;;13.02;5.00;;;14.20;99.90;;;;;;4971600;28;20436;-61
2023/06/30 01:17:49;;;;;;;14.00;5.85;;;14.10;99.90;;;;;;4974915;28;20485;-60
2023/06/30 01:20:17;;;;;;;11.43;5.88;;;14.10;99.90;;;;;;4967400;28;20047;-55
2023/06/30 01:22:46;;;;;;;18.05;6.13;;;14.10;99.90;;;;;;4968151;28;20085;-60
2023/06/30 01:25:19;;;;;;;14.43;5.82;;;14.00;99.90;;;;;;4968119;28;20043;-57
2023/06/30 01:27:45;;;;;;;15.65;5.78;;;14.00;99.90;;;;;;4949927;28;20042;-57
2023/06/30 01:30:11;;;;;;;12.88;6.43;;;14.00;99.90;;;;;;4968541;28;20086;-50
2023/06/30 01:32:37;;;;;;;13.82;5.80;;;13.80;99.90;;;;;;4966888;28;20085;-58
2023/06/30 01:35:03;;;;;;;13.93;6.32;;;13.90;99.90;;;;;;4967961;28;20050;-58
2023/06/30 01:37:29;;;;;;;17.92;5.57;;;13.90;99.90;;;;;;4967834;28;20043;-60
2023/06/30 01:39:55;;;;;;;18.42;5.78;;;13.80;99.90;;;;;;4968075;28;20053;-57
2023/06/30 01:42:20;;;;;;;13.73;5.10;;;13.80;99.90;;;;;;4967576;28;20061;-53
2023/06/30 01:44:47;;;;;;;13.82;5.30;;;13.80;99.90;;;;;;4967657;28;20050;-53
2023/06/30 01:47:13;;;;;;;14.00;5.38;;;13.70;99.90;;;;;;4968145;28;20537;-57
2023/06/30 01:49:39;;;;;;;17.25;5.43;;;13.70;99.90;;;;;;4968462;28;20425;-60
2023/06/30 01:52:05;;;;;;;12.85;5.68;;;13.70;99.90;;;;;;4967715;28;20077;-57
2023/06/30 01:54:31;;;;;;;13.73;5.28;;;13.70;99.90;;;;;;4968262;28;20133;-58
2023/06/30 01:56:57;;;;;;;12.38;4.97;;;13.70;99.90;;;;;;4967330;28;20125;-60
2023/06/30 01:59:23;;;;;;;12.05;4.90;;;13.70;99.90;;;;;;4966408;28;20061;-54
2023/06/30 02:01:48;;;;;;;13.55;4.93;;;13.90;99.90;;;;;;4967206;28;20412;-55
2023/06/30 02:04:15;;;;;;;16.30;4.97;;;13.70;99.90;;;;;;4968417;28;20043;-56
2023/06/30 02:06:42;;;;;;;13.82;5.68;;;13.60;99.90;;;;;;4968169;28;20148;-58
2023/06/30 02:09:08;;;;;;;8.90;4.40;;;13.60;99.90;;;;;;4965961;28;20055;-60
2023/06/30 02:11:34;;;;;;;14.05;5.32;;;13.60;99.90;;;;;;4967051;28;20417;-61
2023/06/30 02:13:59;;;;;;;11.15;4.80;;;13.50;99.90;;;;;;4966310;28;20042;-53
2023/06/30 02:16:25;;;;;;;16.50;5.35;;;13.60;99.90;;;;;;4967566;28;20043;-60
2023/06/30 02:18:51;;;;;;;12.02;5.18;;;13.40;99.90;;;;;;4967504;28;20051;-54
2023/06/30 02:21:17;;;;;;;14.63;5.10;;;13.40;99.90;;;;;;4967899;28;20053;-51
2023/06/30 02:23:42;;;;;;;10.88;4.97;;;13.40;99.90;;;;;;4968502;28;20051;-55
2023/06/30 02:26:08;;;;;;;11.23;4.95;;;13.40;99.90;;;;;;4966700;28;20035;-59
2023/06/30 02:28:33;;;;;;;14.13;5.13;;;13.60;99.90;;;;;;4963778;28;20437;-60
2023/06/30 02:30:59;;;;;;;12.18;5.18;;;13.40;99.90;;;;;;4965008;28;20038;-55
2023/06/30 02:33:25;;;;;;;11.18;5.50;;;13.40;99.90;;;;;;4964518;28;20046;-60
2023/06/30 02:35:50;;;;;;;12.98;5.18;;;13.40;99.90;;;;;;4963844;28;20513;-53
2023/06/30 02:38:16;;;;;;;12.70;5.20;;;13.30;99.90;;;;;;4964810;28;20035;-55
2023/06/30 02:40:42;;;;;;;14.48;5.38;;;13.30;99.90;;;;;;4964355;28;20089;-57
2023/06/30 02:43:08;;;;;;;15.85;5.00;;;13.20;99.90;;;;;;4963813;28;20106;-60
2023/06/30 02:45:33;;;;;;;18.85;5.40;;;13.30;99.90;;;;;;4964164;28;20050;-60
2023/06/30 02:47:59;;;;;;;12.27;5.03;;;13.20;99.90;;;;;;4964187;28;20637;-58
2023/06/30 02:50:30;;;;;;;14.77;5.47;;;13.20;99.90;;;;;;4964194;28;20054;-57
2023/06/30 02:52:57;;;;;;;15.93;5.32;;;13.20;99.90;;;;;;4963590;28;20042;-59
2023/06/30 02:55:23;;;;;;;16.67;5.47;;;13.10;99.90;;;;;;4963416;28;20517;-60
2023/06/30 02:57:49;;;;;;;17.60;5.47;;;13.00;99.90;;;;;;4963828;28;20097;-57
2023/06/30 03:00:15;;;;;;;15.07;5.50;;;13.00;99.90;;;;;;4963816;28;20346;-55
2023/06/30 03:02:40;;;;;;;14.27;5.22;;;13.00;99.90;;;;;;4964449;28;20043;-52
2023/06/30 03:05:07;;;;;;;12.60;5.30;;;13.00;99.90;;;;;;4963932;28;20444;-58
2023/06/30 03:07:33;;;;;;;15.43;5.97;;;12.90;99.90;;;;;;4964284;28;20043;-59
2023/06/30 03:09:59;;;;;;;16.23;5.80;;;13.00;99.90;;;;;;4964258;28;20390;-60
2023/06/30 03:12:24;;;;;;;16.55;5.38;;;12.90;99.90;;;;;;4963110;28;20073;-59
2023/06/30 03:14:50;;;;;;;16.58;5.75;;;12.80;99.90;;;;;;4963647;28;20047;-60
2023/06/30 03:17:16;;;;;;;15.57;6.32;;;12.90;99.90;;;;;;4961502;28;20153;-57
2023/06/30 03:19:42;;;;;;;13.57;5.63;;;12.70;99.90;;;;;;4963334;28;20134;-53
2023/06/30 03:22:08;;;;;;;15.55;6.05;;;12.70;99.90;;;;;;4963469;28;20046;-55
2023/06/30 03:24:33;;;;;;;14.20;5.22;;;12.70;99.90;;;;;;4963488;28;20519;-51
2023/06/30 03:26:59;;;;;;;12.55;5.50;;;12.70;99.90;;;;;;4961472;28;20054;-55
2023/06/30 03:29:26;;;;;;;15.68;6.07;;;12.70;99.90;;;;;;4963258;28;20039;-59
2023/06/30 03:31:52;;;;;;;14.43;5.82;;;12.70;99.90;;;;;;4962346;28;20141;-60
2023/06/30 03:34:17;;;;;;;12.20;5.43;;;12.70;99.90;;;;;;4963169;28;20039;-54
2023/06/30 03:36:43;;;;;;;15.68;5.68;;;12.70;99.90;;;;;;4963613;28;20622;-55
2023/06/30 03:39:09;;;;;;;12.60;5.32;;;12.60;99.90;;;;;;4963403;28;20143;-55
2023/06/30 03:41:34;;;;;;;17.85;5.70;;;12.70;99.90;;;;;;4962197;28;20047;-55
2023/06/30 03:44:00;;;;;;;15.05;5.75;;;12.60;99.90;;;;;;4963432;28;20066;-60
2023/06/30 03:46:26;;;;;;;13.77;5.35;;;12.70;99.90;;;;;;4963306;28;20401;-60
2023/06/30 03:48:51;;;;;;;17.20;5.18;;;12.70;99.90;;;;;;4963191;28;20146;-61
2023/06/30 03:51:17;;;;;;;18.13;5.95;;;12.60;99.90;;;;;;4962803;28;20445;-54
2023/06/30 03:53:43;;;;;;;16.13;5.70;;;12.60;99.90;;;;;;4963229;28;20070;-55
2023/06/30 03:56:09;;;;;;;16.13;5.60;;;12.60;99.90;;;;;;4962320;28;20567;-57
2023/06/30 03:58:35;;;;;;;15.55;5.70;;;12.60;99.90;;;;;;4962966;28;20074;-53
2023/06/30 04:01:01;;;;;;;17.25;5.85;;;12.60;99.90;;;;;;4961801;28;20406;-60
2023/06/30 04:03:26;;;;;;;14.38;5.22;;;13.00;99.90;;;;;;4962587;28;20043;-59
2023/06/30 04:05:53;;;;;;;17.42;5.25;;;12.60;99.90;;;;;;4962419;28;20047;-56
2023/06/30 04:08:18;;;;;;;13.57;4.75;;;12.60;99.90;;;;;;4962684;28;20765;-54
2023/06/30 04:10:44;;;;;;;11.40;5.10;;;12.60;99.90;;;;;;4962626;28;20109;-55
2023/06/30 04:13:10;;;;;;;11.80;5.10;;;12.60;99.90;;;;;;4962797;28;20516;-53
2023/06/30 04:15:36;;;;;;;10.27;4.55;;;12.70;99.90;;;;;;4962591;28;20039;-60
2023/06/30 04:18:02;;;;;;;12.32;5.10;;;12.60;99.90;;;;;;4961194;28;20042;-57
2023/06/30 04:20:28;;;;;;;13.50;5.38;;;12.70;99.90;;;;;;4962575;28;20057;-60
2023/06/30 04:22:53;;;;;;;12.90;5.05;;;12.70;99.90;;;;;;4962558;28;20448;-57
2023/06/30 04:25:19;;;;;;;9.15;4.90;;;12.80;99.90;;;;;;4960224;28;20122;-55
2023/06/30 04:27:45;;;;;;;10.85;4.90;;;12.70;99.90;;;;;;4962374;28;20043;-55
2023/06/30 04:30:12;;;;;;;17.33;5.50;;;12.80;99.90;;;;;;4962413;28;20042;-56
2023/06/30 04:32:38;;;;;;;12.20;5.10;;;12.80;99.90;;;;;;4961615;28;20082;-56
2023/06/30 04:35:04;;;;;;;10.05;4.88;;;12.70;99.90;;;;;;4962372;28;20077;-58
2023/06/30 04:37:30;;;;;;;10.15;5.30;;;12.70;99.90;;;;;;4962171;28;20684;-59
2023/06/30 04:39:59;;;;;;;11.93;5.40;;;12.70;99.90;;;;;;4961841;28;20125;-60
2023/06/30 04:42:28;;;;;;;11.13;5.10;;;12.80;99.90;;;;;;4961584;28;20138;-59
2023/06/30 04:44:53;;;;;;;8.75;4.55;;;12.70;99.90;;;;;;4962275;28;20049;-54
2023/06/30 04:47:19;;;;;;;13.73;6.20;;;12.80;99.90;;;;;;4962525;28;20129;-59
2023/06/30 04:49:45;;;;;;;15.35;5.32;;;12.70;99.90;;;;;;4960313;28;20250;-55
2023/06/30 04:52:11;;;;;;;12.45;5.30;;;12.70;99.90;;;;;;4962021;28;20034;-53
2023/06/30 04:54:36;;;;;;;13.15;5.20;;;12.80;99.90;;;;;;4962196;28;20039;-57
2023/06/30 04:57:02;;;;;;;11.15;4.95;;;13.00;99.90;;;;;;4961900;28;20497;-59
2023/06/30 04:59:28;;;;;;;13.13;4.70;;;13.40;99.90;;;;;;4961376;28;20078;-58
2023/06/30 05:01:53;;;;;;;12.68;4.90;;;13.70;99.90;;;;;;4962571;28;20049;-54
2023/06/30 05:04:19;;;;;;;12.80;4.35;;;14.00;99.90;;;;;;4961845;28;20038;-58
2023/06/30 05:06:44;;;;;;;8.10;4.35;;;14.20;99.90;;;;;;4960814;28;20055;-55
2023/06/30 05:09:10;;;;;;;9.95;3.83;;;14.50;99.90;;;;;;4962235;28;20501;-52
2023/06/30 05:11:36;;;;;;;10.30;3.72;;;14.70;99.90;;;;;;4961484;28;20050;-56
2023/06/30 05:14:02;;;;;;;9.45;3.85;;;14.90;99.90;;;;;;4962213;28;20101;-57
2023/06/30 05:16:27;;;;;;;9.55;2.97;;;15.00;99.90;;;;;;4963352;28;20046;-60
2023/06/30 05:18:53;;;;;;;8.15;3.40;;;15.10;99.90;;;;;;4962078;28;20058;-50
2023/06/30 05:21:18;;;;;;;10.43;3.90;;;15.30;99.90;;;;;;4980894;28;20068;-60
2023/06/30 05:23:44;;;;;;;14.23;6.05;;;15.50;99.90;;;;;;4980407;28;20050;-55
2023/06/30 05:26:10;;;;;;;11.50;4.13;;;15.70;99.90;;;;;;4980954;28;20053;-56
2023/06/30 05:28:36;;;;;;;9.88;3.88;;;15.90;99.90;;;;;;4979609;28;20121;-57
2023/06/30 05:31:02;;;;;;;8.82;3.28;;;16.00;99.90;;;;;;4980953;28;20045;-61
2023/06/30 05:33:28;;;;;;;12.85;3.60;;;16.20;99.90;;;;;;4980305;28;20042;-60
2023/06/30 05:35:53;;;;;;;10.40;3.58;;;16.30;99.90;;;;;;4973967;28;20046;-58
2023/06/30 05:38:19;;;;;;;10.85;3.65;;;16.50;99.90;;;;;;4961396;28;20283;-60
2023/06/30 05:40:45;;;;;;;12.45;3.75;;;16.70;99.90;;;;;;4960318;28;20050;-53
2023/06/30 05:43:10;;;;;;;8.23;3.03;;;17.10;99.90;;;;;;4961450;28;20043;-55
2023/06/30 05:45:37;;;;;;;9.50;3.17;;;17.30;99.90;;;;;;4961821;28;20069;-49
2023/06/30 05:48:03;;;;;;;12.10;3.20;;;17.70;99.90;;;;;;4961660;28;20085;-60
2023/06/30 05:50:29;;;;;;;9.35;2.88;;;18.00;99.90;;;;;;4961091;28;20397;-60
2023/06/30 05:52:54;;;;;;;10.07;2.67;;;18.30;99.90;;;;;;4961594;28;20046;-60
2023/06/30 05:55:20;;;;;;;8.52;2.90;;;18.70;99.90;;;;;;4960654;28;20177;-56
2023/06/30 05:57:47;;;;;;;7.40;2.70;;;18.80;99.90;;;;;;4960839;28;20082;-55
2023/06/30 06:00:13;;;;;;;9.18;2.60;;;19.10;99.90;;;;;;4961258;28;20046;-52
2023/06/30 06:02:39;;;;;;;7.13;2.50;;;19.30;99.90;;;;;;4961788;28;20417;-56
2023/06/30 06:05:05;;;;;;;6.00;2.60;;;19.60;99.90;;;;;;4964862;28;20055;-57
2023/06/30 06:07:30;;;;;;;8.50;2.83;;;19.90;99.90;;;;;;4963925;28;20053;-61
2023/06/30 06:09:56;;;;;;;13.00;2.97;;;19.90;99.90;;;;;;4964535;28;20039;-61
2023/06/30 06:12:22;;;;;;;8.57;2.33;;;20.00;99.90;;;;;;4964357;28;20431;-60
2023/06/30 06:14:47;;;;;;;6.85;2.80;;;20.20;99.90;;;;;;4963099;28;20129;-53
2023/06/30 06:17:13;;;;;;;7.07;2.33;;;20.30;99.90;;;;;;4964484;28;20038;-53
2023/06/30 06:19:39;;;;;;;5.10;3.00;;;20.40;99.90;;;;;;4964912;28;20047;-54
2023/06/30 06:22:05;;;;;;;6.10;2.20;;;20.50;99.90;;;;;;4983345;28;20441;-59
2023/06/30 06:24:30;;;;;;;6.78;1.92;;;20.40;99.90;;;;;;4982451;28;20046;-48
2023/06/30 06:26:56;;;;;;;4.90;2.00;;;20.40;99.90;;;;;;4982929;28;20516;-60
2023/06/30 06:29:22;;;;;;;6.70;1.77;;;20.60;99.90;;;;;;4983443;28;20042;-60
2023/06/30 06:31:52;;;;;;;6.20;1.67;;;20.60;99.90;;;;;;4982670;28;20057;-57
2023/06/30 06:34:21;;;;;;;3.63;1.83;;;20.50;99.90;;;;;;4983293;28;20046;-56
2023/06/30 06:36:47;;;;;;;6.95;1.88;;;20.60;99.90;;;;;;4983064;28;20081;-57
2023/06/30 06:39:14;;;;;;;4.60;1.73;;;20.90;99.90;;;;;;4982836;28;20112;-55
2023/06/30 06:41:39;;;;;;;8.23;1.80;;;20.90;99.90;;;;;;4982929;28;20077;-54
2023/06/30 06:44:05;;;;;;;8.07;1.60;;;21.20;99.90;;;;;;4983159;28;20766;-53
2023/06/30 06:46:31;;;;;;;6.68;2.10;;;21.20;99.90;;;;;;4983462;28;20125;-56
2023/06/30 06:48:57;;;;;;;5.93;1.52;;;21.30;99.90;;;;;;4973565;28;20042;-57
2023/06/30 06:51:23;;;;;;;8.63;1.90;;;21.30;99.90;;;;;;4974606;28;20548;-59
2023/06/30 06:53:48;;;;;;;6.20;1.60;;;21.40;99.90;;;;;;4967202;28;20142;-60
2023/06/30 06:56:14;;;;;;;5.93;1.85;;;21.40;99.90;;;;;;4962782;28;20130;-57
2023/06/30 06:58:39;;;;;;;6.03;1.63;;;21.60;99.90;;;;;;4963162;28;20529;-54
2023/06/30 07:01:05;;;;;;;4.78;1.50;;;21.60;99.90;;;;;;4963030;28;20046;-54
2023/06/30 07:03:31;;;;;;;5.68;1.98;;;21.40;99.90;;;;;;4963839;28;20390;-55
2023/06/30 07:05:58;;;;;;;6.80;2.13;;;21.00;99.90;;;;;;4966674;28;20120;-61
2023/06/30 07:08:24;;;;;;;6.50;1.98;;;20.30;99.90;;;;;;4975291;28;20047;-60
2023/06/30 07:10:50;;;;;;;6.93;1.92;;;19.90;99.90;;;;;;4965411;28;20139;-50
2023/06/30 07:13:18;;;;;;;4.18;1.70;;;19.90;99.90;;;;;;4964692;28;20050;-57
2023/06/30 07:15:45;;;;;;;5.85;1.83;;;20.00;99.90;;;;;;4965417;28;20482;-57
2023/06/30 07:18:11;;;;;;;4.32;1.50;;;20.20;99.90;;;;;;4966375;28;20043;-56
2023/06/30 07:20:37;;;;;;;4.47;1.77;;;20.50;99.90;;;;;;4967154;28;20121;-49
2023/06/30 07:23:03;;;;;;;5.05;1.30;;;20.80;99.90;;;;;;4963005;28;20611;-53
2023/06/30 07:25:28;;;;;;;4.32;1.58;;;21.10;99.90;;;;;;4963306;28;20113;-55
2023/06/30 07:27:57;;;;;;;6.80;1.70;;;21.20;99.90;;;;;;4965911;28;20080;-61
2023/06/30 07:30:24;;;;;;;10.32;1.52;;;21.30;99.90;;;;;;4962887;28;20069;-58
2023/06/30 07:32:50;;;;;;;7.28;1.33;;;21.40;99.90;;;;;;4971468;28;20129;-57
2023/06/30 07:35:17;;;;;;;6.88;1.65;;;21.50;99.90;;;;;;4977449;28;20122;-60
2023/06/30 07:37:44;;;;;;;4.15;1.23;;;21.10;99.90;;;;;;4966429;28;20061;-55
2023/06/30 07:40:10;;;;;;;6.22;1.60;;;20.70;99.90;;;;;;4974952;28;20499;-60
2023/06/30 07:42:38;;;;;;;6.38;1.80;;;20.70;99.90;;;;;;4964547;28;20042;-54
2023/06/30 07:45:06;;;;;;;4.43;1.85;;;20.70;99.90;;;;;;4963794;28;20047;-56
2023/06/30 07:47:32;;;;;;;7.85;2.08;;;20.40;99.90;;;;;;4962926;28;20047;-54
2023/06/30 07:49:57;;;;;;;6.85;1.80;;;20.30;99.90;;;;;;4962488;28;20619;-54
2023/06/30 07:52:23;;;;;;;5.03;1.70;;;20.20;99.90;;;;;;4963595;28;20100;-56
2023/06/30 07:54:52;;;;;;;4.00;1.33;;;20.20;99.90;;;;;;4961984;28;20047;-58
2023/06/30 07:57:17;;;;;;;7.13;1.55;;;20.00;99.90;;;;;;4971264;28;20129;-52
2023/06/30 07:59:43;;;;;;;7.03;1.30;;;19.90;99.90;;;;;;4971607;28;20085;-55
2023/06/30 08:02:08;;;;;;;5.45;1.38;;;20.10;99.90;;;;;;4962564;28;20130;-61
2023/06/30 08:04:35;;;;;;;8.20;1.85;;;20.40;99.90;;;;;;4962111;28;20114;-59
2023/06/30 08:07:01;;;;;;;4.22;1.40;;;20.70;99.90;;;;;;4962792;28;20046;-54
2023/06/30 08:09:26;;;;;;;6.90;1.58;;;20.80;99.90;;;;;;4962739;28;20061;-54
2023/06/30 08:11:52;;;;;;;6.32;1.70;;;20.70;99.90;;;;;;4961765;28;20090;-54
2023/06/30 08:14:18;;;;;;;5.65;1.30;;;20.30;99.90;;;;;;4962697;28;20051;-54
2023/06/30 08:16:44;;;;;;;6.93;1.70;;;20.00;99.90;;;;;;4962758;28;20104;-59
2023/06/30 08:19:09;;;;;;;5.60;1.70;;;19.70;99.90;;;;;;4962831;28;20049;-61
2023/06/30 08:21:35;;;;;;;5.50;1.83;;;19.60;99.90;;;;;;4960748;28;20050;-60
2023/06/30 08:24:00;;;;;;;6.40;1.50;;;19.70;99.90;;;;;;4962939;28;20038;-57
2023/06/30 08:26:26;;;;;;;8.95;1.70;;;19.90;99.90;;;;;;4961592;28;20042;-54
2023/06/30 08:28:52;;;;;;;4.72;1.40;;;20.00;99.90;;;;;;4962210;28;20461;-59
2023/06/30 08:31:17;;;;;;;5.95;1.50;;;20.20;99.90;;;;;;4962746;28;20030;-61
2023/06/30 08:33:43;;;;;;;5.80;1.92;;;20.30;99.90;;;;;;4962562;28;20376;-61
2023/06/30 08:36:09;;;;;;;7.50;1.40;;;20.60;99.90;;;;;;4962455;28;20339;-61
2023/06/30 08:38:34;;;;;;;6.60;1.65;;;20.90;99.90;;;;;;4972336;28;20727;-58
2023/06/30 08:41:00;;;;;;;4.00;1.23;;;21.00;99.90;;;;;;4962426;28;20043;-54
2023/06/30 08:43:28;;;;;;;6.80;1.40;;;21.10;99.30;;;;;;4972862;28;20381;-56
2023/06/30 08:45:55;;;;;;;3.53;1.17;;;21.30;98.60;;;;;;4980836;28;20464;-56
2023/06/30 08:48:21;;;;;;;4.05;1.20;;;21.50;98.00;;;;;;4982017;28;20070;-58
2023/06/30 08:50:47;;;;;;;3.90;1.08;;;21.70;97.50;;;;;;4981965;28;20046;-62
2023/06/30 08:53:13;;;;;;;3.55;1.05;;;21.90;96.30;;;;;;4974129;28;20050;-58
2023/06/30 08:55:39;;;;;;;4.80;1.08;;;22.10;95.90;;;;;;4964727;28;20135;-60
2023/06/30 08:58:05;;;;;;;6.00;1.13;;;22.20;95.10;;;;;;4962377;28;20169;-61
2023/06/30 09:00:30;;;;;;;4.03;1.00;;;22.20;95.10;;;;;;4962131;28;20044;-55
2023/06/30 09:02:58;;;;;;;4.07;1.27;;;22.20;95.30;;;;;;4961659;28;20374;-55
2023/06/30 09:05:25;;;;;;;6.88;1.13;;;22.30;95.40;;;;;;4964263;28;20093;-54
2023/06/30 09:07:57;;;;;;;2.67;1.05;;;22.40;95.30;;;;;;4974558;28;20128;-51
2023/06/30 09:10:28;;;;;;;3.67;1.15;;;22.40;95.60;;;;;;4967716;28;20042;-55
2023/06/30 09:12:59;;;;;;;3.72;0.95;;;22.40;95.30;;;;;;4972365;28;20042;-61
2023/06/30 09:15:25;;;;;;;6.90;1.40;;;22.30;94.40;;;;;;4970109;28;20452;-56
2023/06/30 09:17:53;;;;;;;9.32;1.15;;;22.40;93.90;;;;;;4968823;28;20050;-61
2023/06/30 09:20:21;;;;;;;3.88;1.50;;;22.50;93.80;;;;;;4969529;28;20073;-59
2023/06/30 09:22:46;;;;;;;3.40;1.10;;;22.50;92.90;;;;;;4968669;28;20105;-61
2023/06/30 09:25:27;;;;;;;3.90;0.95;;;22.20;93.80;;;;;;4964441;28;20039;-58
2023/06/30 09:27:54;;;;;;;5.00;1.10;;;22.00;94.10;;;;;;4974241;28;20082;-56
2023/06/30 09:30:33;;;;;;;6.82;1.25;;;21.60;94.00;;;;;;4962335;28;20049;-57
2023/06/30 09:32:59;;;;;;;5.43;1.10;;;21.30;94.30;;;;;;4970103;28;20085;-59
2023/06/30 09:35:25;;;;;;;4.85;1.10;;;20.90;94.10;;;;;;4980862;28;20070;-61
2023/06/30 09:37:53;;;;;;;2.85;1.08;;;20.60;94.30;;;;;;4982762;28;20046;-57
2023/06/30 09:40:24;;;;;;;3.92;1.17;;;20.40;94.60;;;;;;4983787;28;20057;-55
2023/06/30 09:42:53;;;;;;;6.03;1.17;;;20.20;94.30;;;;;;4985231;28;20137;-57
2023/06/30 09:45:20;;;;;;;2.83;1.10;;;20.00;94.90;;;;;;4983456;28;20054;-58
2023/06/30 09:47:54;;;;;;;6.90;1.20;;;20.10;95.30;;;;;;4984310;28;20469;-54
2023/06/30 09:50:29;;;;;;;5.38;1.20;;;20.50;95.20;;;;;;4984753;28;20096;-56
2023/06/30 09:52:55;;;;;;;3.38;1.10;;;21.00;94.80;;;;;;4984189;28;20073;-55
2023/06/30 09:55:20;;;;;;;4.50;0.90;;;21.40;93.70;;;;;;4984250;28;20425;-52
2023/06/30 09:57:46;;;;;;;7.35;1.45;;;21.60;93.90;;;;;;4985164;28;20085;-54
2023/06/30 10:00:16;;;;;;;5.40;1.15;;;22.00;93.80;;;;;;4984986;28;20070;-59
2023/06/30 10:02:43;;;;;;;3.88;1.00;;;22.40;93.80;;;;;;4984641;28;20065;-55
2023/06/30 10:05:11;;;;;;;4.45;1.08;;;22.50;93.70;;;;;;4984599;28;20050;-58
2023/06/30 10:07:39;;;;;;;3.72;1.00;;;22.50;93.00;;;;;;4985160;28;20054;-54
2023/06/30 10:10:11;;;;;;;3.55;1.17;;;22.30;93.00;;;;;;4984478;28;20253;-49
2023/06/30 10:12:41;;;;;;;3.10;0.98;;;21.90;92.40;;;;;;4985282;28;20136;-53
2023/06/30 10:15:10;;;;;;;5.95;1.33;;;21.60;92.50;;;;;;4984490;28;20054;-52
2023/06/30 10:17:38;;;;;;;3.83;0.98;;;21.40;93.10;;;;;;4984736;28;20331;-53
2023/06/30 10:20:06;;;;;;;5.20;1.23;;;21.30;93.70;;;;;;4984538;28;20050;-53
2023/06/30 10:22:32;;;;;;;4.32;1.10;;;21.10;93.70;;;;;;4982366;28;20042;-52
2023/06/30 10:24:58;;;;;;;3.35;1.25;;;21.00;93.40;;;;;;4982297;28;20048;-52
2023/06/30 10:27:24;;;;;;;5.38;1.35;;;21.10;93.50;;;;;;4983188;28;20039;-56
2023/06/30 10:29:50;;;;;;;3.00;1.10;;;21.30;93.50;;;;;;4984070;28;20505;-57
2023/06/30 10:32:20;;;;;;;2.65;0.90;;;21.40;92.40;;;;;;4983607;28;20284;-58
2023/06/30 10:34:50;;;;;;;3.97;1.10;;;21.30;91.80;;;;;;4984453;28;20039;-58
2023/06/30 10:37:16;;;;;;;3.88;1.20;;;21.50;92.20;;;;;;4984341;28;20101;-57
2023/06/30 10:39:43;;;;;;;3.55;1.20;;;21.80;92.40;;;;;;4976184;28;20371;-52
2023/06/30 10:42:12;;;;;;;4.93;1.02;;;22.10;91.00;;;;;;4982685;28;20047;-51
2023/06/30 10:44:45;;;;;;;2.53;0.93;;;22.40;90.90;;;;;;4984515;28;20108;-53
2023/06/30 10:47:11;;;;;;;4.65;1.23;;;22.70;91.20;;;;;;4980541;28;20241;-53
2023/06/30 10:49:39;;;;;;;3.28;1.25;;;22.60;91.00;;;;;;4966791;28;20047;-50
2023/06/30 10:52:23;;;;;;;5.22;1.35;;;22.50;90.90;;;;;;4972525;28;20443;-53
2023/06/30 10:54:49;;;;;;;6.35;1.00;;;22.40;91.10;;;;;;4980666;28;20070;-53
2023/06/30 10:57:26;;;;;;;3.38;0.98;;;22.10;91.20;;;;;;4971318;28;20050;-54
2023/06/30 11:00:03;;;;;;;4.95;1.00;;;21.90;91.00;;;;;;4969043;28;20053;-52
2023/06/30 11:02:53;;;;;;;4.30;1.50;;;21.70;91.50;;;;;;4968394;28;20054;-53
2023/06/30 11:05:20;;;;;;;5.15;1.35;;;21.60;91.60;;;;;;4969190;28;20132;-52
2023/06/30 11:07:48;;;;;;;5.15;0.98;;;21.70;90.90;;;;;;4973499;28;20334;-52
2023/06/30 11:10:24;;;;;;;4.30;1.00;;;21.80;90.80;;;;;;4974371;28;20057;-53
2023/06/30 11:12:52;;;;;;;4.90;1.40;;;21.40;90.80;;;;;;4964096;28;20051;-53
2023/06/30 11:15:25;;;;;;;3.83;1.30;;;22.10;90.30;;;;;;4977455;28;20390;-52
2023/06/30 11:17:51;;;;;;;4.05;1.15;;;22.10;90.60;;;;;;4971018;28;20034;-53
2023/06/30 11:20:18;;;;;;;4.40;1.20;;;22.30;90.70;;;;;;4963003;28;20047;-53
2023/06/30 11:22:59;;;;;;;2.35;0.90;;;22.60;89.50;;;;;;4963922;28;20565;-52
2023/06/30 11:25:24;;;;;;;3.33;1.00;;;22.80;89.50;;;;;;4981765;28;20066;-53
2023/06/30 11:27:51;;;;;;;3.25;1.10;;;23.20;90.00;;;;;;4983020;28;20050;-53
2023/06/30 11:30:18;;;;;;;4.55;0.93;;;23.50;90.00;;;;;;4976835;28;20533;-50
2023/06/30 11:32:45;;;;;;;2.63;1.05;;;23.70;88.40;;;;;;4980525;28;20505;-51
2023/06/30 11:35:12;;;;;;;2.58;0.95;;;23.70;89.30;;;;;;4978342;28;20106;-50
2023/06/30 11:37:38;;;;;;;2.88;1.00;;;23.50;89.20;;;;;;4971282;28;20034;-50
2023/06/30 11:40:05;;;;;;;3.25;1.02;;;23.30;89.90;;;;;;4961601;28;20055;-52
2023/06/30 11:42:32;;;;;;;3.53;1.20;;;23.50;90.00;;;;;;4961762;28;20050;-52
2023/06/30 11:44:58;;;;;;;5.38;1.40;;;23.70;89.70;;;;;;4963197;28;20138;-54
2023/06/30 11:47:23;;;;;;;3.72;1.13;;;23.90;87.80;;;;;;4977240;28;20118;-53
2023/06/30 11:49:50;;;;;;;3.30;0.93;;;24.10;87.30;;;;;;4982249;28;20133;-53
2023/06/30 11:52:18;;;;;;;3.38;1.10;;;24.20;87.50;;;;;;4983378;28;20105;-53
2023/06/30 11:54:43;;;;;;;3.15;1.10;;;24.10;84.30;;;;;;4982588;28;20042;-52
2023/06/30 11:57:09;;;;;;;5.03;0.82;;;23.70;85.20;;;;;;4982048;28;20042;-52
2023/06/30 11:59:36;;;;;;;4.85;1.15;;;23.50;86.80;;;;;;4982706;28;20038;-53
2023/06/30 12:02:03;;;;;;;3.05;1.20;;;23.40;86.10;;;;;;4982642;28;20050;-53
2023/06/30 12:04:33;;;;;;;2.67;1.20;;;23.60;82.20;;;;;;4976479;28;20054;-53
2023/06/30 12:07:02;;;;;;;5.75;0.90;;;23.60;83.80;;;;;;4962800;28;20652;-53
2023/06/30 12:09:28;;;;;;;3.10;1.20;;;23.60;83.00;;;;;;4962603;28;20043;-51
2023/06/30 12:11:56;;;;;;;3.50;0.88;;;23.70;82.60;;;;;;4962939;28;20058;-52
2023/06/30 12:14:22;;;;;;;3.75;1.10;;;23.80;82.00;;;;;;4962281;28;20062;-52
2023/06/30 12:16:48;;;;;;;8.50;1.15;;;23.70;82.20;;;;;;4963134;28;20059;-48
2023/06/30 12:19:15;;;;;;;4.25;1.10;;;23.50;82.70;;;;;;4962131;28;20105;-55
2023/06/30 12:22:07;;;;;;;1.77;0.88;;;23.40;83.30;;;;;;4971050;28;20049;-53
2023/06/30 12:24:34;;;;;;;4.95;1.40;;;23.60;84.70;;;;;;4961878;28;20113;-51
2023/06/30 12:27:07;;;;;;;4.45;1.48;;;23.60;84.10;;;;;;4962293;28;20050;-52
2023/06/30 12:29:35;;;;;;;3.53;1.40;;;23.60;83.00;;;;;;4962635;28;20043;-52
2023/06/30 12:32:16;;;;;;;2.50;1.00;;;23.60;83.70;;;;;;4968836;28;20397;-51
2023/06/30 12:34:43;;;;;;;4.43;1.27;;;23.80;84.00;;;;;;4973275;28;20489;-48
2023/06/30 12:37:09;;;;;;;3.63;1.20;;;24.00;83.70;;;;;;4962944;28;20362;-53
2023/06/30 12:39:34;;;;;;;2.70;1.10;;;24.10;83.80;;;;;;4966681;28;20043;-55
2023/06/30 12:42:00;;;;;;;5.20;1.60;;;24.00;82.80;;;;;;4961829;28;20102;-58